ADDS METAR Data INFO
IDs: Format: Raw Decoded Include TAF

Data at: 0750 UTC 17 Oct 2017

KRDU 170651Z 03005KT 10SM FEW250 09/06 A3025 RMK AO2 SLP244 T00940061
KRDU 170551Z 01004KT 10SM FEW250 10/06 A3025 RMK AO2 SLP243 T01000061 10150 20100 51005
KRDU 170451Z 03006KT 10SM FEW250 11/07 A3025 RMK AO2 SLP242 T01060067 402060106
KRDU 170351Z 02004KT 10SM FEW250 11/08 A3025 RMK AO2 SLP243 T01060083
KRDU 170251Z 02003KT 10SM FEW250 12/09 A3023 RMK AO2 SLP237 T01170089 51024
KRDU 170151Z 04006KT 10SM FEW060 FEW250 13/08 A3021 RMK AO2 SLP230 T01330083
KRDU 170051Z 03008KT 10SM SCT060 BKN250 14/09 A3019 RMK AO2 SLP220 T01440094
KRDU 162351Z 00000KT 10SM BKN055 BKN200 BKN250 14/14 A3016 RMK AO2 SLP212 T01440139 10172 20139 53024
KRDU 162251Z 00000KT 10SM FEW050 FEW200 BKN250 14/13 A3013 RMK AO2 SLP201 T01440133
KRDU 162151Z 04004KT 10SM FEW050 SCT200 BKN250 17/13 A3011 RMK AO2 SLP192 T01670133
KRDU 162051Z 04006KT 10SM BKN050 BKN200 BKN250 17/13 A3009 RMK AO2 SLP187 T01670133 50001
KRDU 161951Z 02006KT 10SM BKN038 BKN055 BKN250 17/13 A3010 RMK AO2 SLP188 T01670128
KRDU 161923Z 04006KT 10SM BKN030 BKN055 BKN250 16/14 A3010 RMK AO2 T01610139
KRDU 161851Z 03006KT 10SM BKN027 BKN055 BKN250 16/13 A3009 RMK AO2 SLP187 T01560133
KRDU 161751Z 02004KT 10SM FEW015 BKN024 BKN032 15/13 A3009 RMK AO2 SLP187 60025 T01500133 10200 20133 58001
KRDU 161651Z 02006KT 10SM FEW010 BKN038 BKN055 OVC140 14/13 A3010 RMK AO2 RAE21 SLP188 P0003 T01390133
KRDU 161622Z VRB04KT 10SM SCT010 BKN033 BKN060 OVC140 14/13 A3010 RMK AO2 RAE21 P0003 T01390133
KRDU 161551Z 35005KT 6SM -RA BR BKN010 BKN015 OVC022 14/13 A3010 RMK AO2 RAE01B17 SLP189 P0005 T01390133
KRDU 161451Z 01006KT 10SM -RA BKN012 BKN050 OVC090 15/15 A3009 RMK AO2 SLP187 P0006 60017 T01500150 51027
KRDU 161351Z VRB06KT 3SM RA BR BKN017 OVC032 16/16 A3008 RMK AO2 RAB12 SLP185 P0011 T01560156
KRDU 161251Z 35007KT 10SM BKN017 OVC028 19/16 A3004 RMK AO2 SLP168 T01940161
KRDU 161151Z 00000KT 10SM FEW008 BKN012 OVC021 19/19 A3001 RMK AO2 SLP159 T01940189 10206 20183 53016
KRDU 161051Z 24005KT 9SM BKN026 BKN050 BKN120 18/18 A2998 RMK AO2 SLP149 T01830183
KRDU 161017Z 23004KT 10SM BKN026 BKN050 BKN120 19/18 A2998 RMK AO2 T01890183 $
KRDU 160951Z 25003KT 10SM BKN031 BKN050 BKN120 19/18 A2997 RMK AO2 SLP145 T01890183 $
KRDU 160851Z 23006KT 10SM FEW020 FEW120 19/18 A2996 RMK AO2 SLP141 T01890183 55010 $
KRDU 160751Z 23007KT 10SM BKN120 19/19 A2996 RMK AO2 SLP141 T01940189 $
KRDU 160651Z 22006KT 10SM BKN120 21/19 A2997 RMK AO2 SLP145 T02060189 $
KRDU 160551Z 22008KT 10SM SCT120 21/19 A2999 RMK AO2 SLP151 T02060189 10233 20200 56009 $
KRDU 160451Z 23008KT 10SM SCT140 21/19 A3000 RMK AO2 SLP155 T02060189 402830167 $
KRDU 160351Z 21010KT 10SM FEW120 22/19 A3000 RMK AO2 SLP154 T02170189 $
KRDU 160251Z 21009KT 10SM CLR 22/19 A3002 RMK AO2 SLP161 T02220189 50001 $
KRDU 160151Z 22007KT 10SM CLR 22/19 A3003 RMK AO2 SLP164 T02170189 $
KRDU 160051Z 21011KT 10SM FEW095 23/19 A3002 RMK AO2 SLP160 T02330194 $
KRDU 152351Z 19007KT 10SM FEW085 23/19 A3002 RMK AO2 SLP161 T02330194 10283 20233 55005 $
KRDU 152251Z 21008KT 10SM FEW085 25/19 A3001 RMK AO2 SLP159 T02500189 $
KRDU 152151Z 23012KT 10SM FEW085 27/18 A3002 RMK AO2 SLP162 T02670183 $
KRDU 152051Z 24015KT 10SM FEW040 SCT085 SCT250 28/19 A3003 RMK AO2 SLP165 T02780189 56021 $
KRDU 151951Z 24012KT 10SM FEW030 SCT085 SCT250 26/18 A3005 RMK AO2 SLP171 T02610183 $